createdAt,value
2019-03-30T00:01:02.559Z,6.69
2019-03-30T00:03:30.882Z,6.56
2019-03-30T00:05:59.193Z,6.41
2019-03-30T00:08:27.821Z,6.48
2019-03-30T00:10:56.134Z,6.37
2019-03-30T00:13:24.476Z,6.46
2019-03-30T00:15:52.794Z,6.74
2019-03-30T00:18:21.097Z,7.38
2019-03-30T00:20:49.749Z,6.68
2019-03-30T00:23:18.726Z,6.43
2019-03-30T00:25:47.317Z,6.39
2019-03-30T00:28:15.617Z,6.30
2019-03-30T00:30:43.941Z,6.20
2019-03-30T00:33:12.362Z,6.12
2019-03-30T00:35:40.677Z,6.06
2019-03-30T00:38:08.982Z,6.15
2019-03-30T00:40:37.326Z,6.48
2019-03-30T00:43:05.984Z,5.97
2019-03-30T00:45:34.749Z,6.05
2019-03-30T00:48:03.060Z,5.98
2019-03-30T00:50:31.427Z,5.90
2019-03-30T00:52:59.752Z,5.79
2019-03-30T00:55:28.052Z,5.87
2019-03-30T00:57:56.379Z,5.80
2019-03-30T01:00:24.828Z,5.71
2019-03-30T01:02:53.149Z,5.71
2019-03-30T01:05:21.460Z,5.71
2019-03-30T01:07:49.787Z,5.65
2019-03-30T01:10:18.391Z,5.56
2019-03-30T01:12:47.134Z,5.55
2019-03-30T01:15:16.141Z,6.07
2019-03-30T01:17:44.756Z,5.66
2019-03-30T01:20:13.218Z,5.65
2019-03-30T01:22:41.718Z,5.47
2019-03-30T01:25:10.307Z,5.53
2019-03-30T01:27:38.623Z,5.47
2019-03-30T01:30:07.609Z,5.42
2019-03-30T01:32:35.915Z,5.45
2019-03-30T01:35:06.807Z,5.40
2019-03-30T01:37:36.237Z,5.45
2019-03-30T01:40:07.008Z,5.42
2019-03-30T01:42:35.543Z,5.43
2019-03-30T01:45:06.202Z,5.51
2019-03-30T01:47:34.510Z,5.53
2019-03-30T01:50:16.156Z,5.55
2019-03-30T01:52:32.941Z,5.54
2019-03-30T01:55:01.309Z,5.66
2019-03-30T01:57:29.980Z,5.54
2019-03-30T01:59:58.296Z,5.44
2019-03-30T02:02:26.621Z,5.22
2019-03-30T02:04:54.929Z,5.16
2019-03-30T02:07:23.557Z,4.86
2019-03-30T02:09:51.933Z,4.72
2019-03-30T02:12:20.241Z,4.62
2019-03-30T02:14:48.656Z,4.64
2019-03-30T02:17:20.058Z,4.68
2019-03-30T02:19:47.087Z,4.58
2019-03-30T02:22:15.387Z,4.65
2019-03-30T02:24:43.712Z,4.78
2019-03-30T02:27:12.445Z,4.68
2019-03-30T02:29:40.762Z,4.60
2019-03-30T02:32:09.069Z,4.53
2019-03-30T02:34:37.379Z,4.43
2019-03-30T02:37:05.793Z,4.53
2019-03-30T02:39:34.172Z,4.56
2019-03-30T02:42:02.505Z,4.55
2019-03-30T02:44:31.118Z,4.51
2019-03-30T02:46:59.455Z,4.49
2019-03-30T02:49:27.760Z,4.43
2019-03-30T02:51:56.131Z,4.47
2019-03-30T02:54:24.633Z,4.48
2019-03-30T02:56:53.021Z,4.57
2019-03-30T02:59:21.725Z,4.40
2019-03-30T03:01:50.409Z,4.45
2019-03-30T03:04:18.819Z,4.44
2019-03-30T03:06:47.132Z,4.38
2019-03-30T03:09:15.433Z,4.35
2019-03-30T03:11:44.140Z,4.40
2019-03-30T03:14:12.437Z,4.28
2019-03-30T03:16:41.091Z,4.23
2019-03-30T03:19:09.370Z,4.17
2019-03-30T03:21:37.967Z,4.11
2019-03-30T03:24:06.345Z,4.23
2019-03-30T03:26:35.047Z,4.22
2019-03-30T03:29:03.356Z,4.17
2019-03-30T03:31:31.700Z,3.96
2019-03-30T03:34:00.023Z,3.98
2019-03-30T03:36:28.398Z,4.12
2019-03-30T03:38:56.737Z,3.98
2019-03-30T03:41:25.335Z,3.96
2019-03-30T03:43:54.028Z,4.02
2019-03-30T03:46:22.329Z,4.07
2019-03-30T03:48:50.661Z,4.12
2019-03-30T03:51:26.034Z,3.94
2019-03-30T03:53:50.143Z,3.95
2019-03-30T03:56:21.154Z,3.88
2019-03-30T03:58:49.713Z,3.85
2019-03-30T04:01:20.068Z,3.55
2019-03-30T04:03:51.543Z,3.59
2019-03-30T04:06:20.336Z,3.67
2019-03-30T04:08:48.724Z,3.90
2019-03-30T04:11:18.017Z,3.76
2019-03-30T04:13:47.598Z,3.82
2019-03-30T04:16:15.990Z,3.58
2019-03-30T04:18:47.942Z,3.43
2019-03-30T04:21:14.961Z,3.42
2019-03-30T04:23:43.617Z,3.52
2019-03-30T04:26:11.939Z,3.56
2019-03-30T04:28:40.244Z,3.41
2019-03-30T04:31:08.572Z,3.40
2019-03-30T04:33:37.220Z,3.44
2019-03-30T04:36:05.521Z,3.33
2019-03-30T04:38:33.852Z,3.27
2019-03-30T04:41:02.225Z,3.22
2019-03-30T04:43:30.557Z,3.38
2019-03-30T04:45:58.861Z,3.43
2019-03-30T04:48:29.528Z,3.25
2019-03-30T04:50:57.213Z,3.32
2019-03-30T04:53:25.522Z,3.25
2019-03-30T04:55:53.841Z,3.25
2019-03-30T04:58:22.155Z,3.27
2019-03-30T05:00:50.856Z,3.25
2019-03-30T05:03:19.164Z,3.23
2019-03-30T05:05:47.499Z,3.24
2019-03-30T05:08:15.802Z,3.31
2019-03-30T05:10:44.395Z,3.38
2019-03-30T05:13:12.701Z,3.48
2019-03-30T05:15:41.018Z,3.47
2019-03-30T05:18:09.334Z,3.48
2019-03-30T05:20:38.010Z,3.41
2019-03-30T05:23:06.349Z,3.53
2019-03-30T05:25:34.662Z,3.62
2019-03-30T05:28:03.064Z,3.75
2019-03-30T05:30:31.396Z,3.81
2019-03-30T05:33:06.075Z,3.96
2019-03-30T05:35:30.961Z,4.03
2019-03-30T05:38:01.437Z,4.17
2019-03-30T05:40:29.317Z,4.30
2019-03-30T05:42:57.648Z,4.31
2019-03-30T05:45:25.956Z,4.36
2019-03-30T05:47:54.375Z,4.47
2019-03-30T05:50:22.993Z,4.57
2019-03-30T05:52:51.364Z,4.65
2019-03-30T05:55:19.688Z,4.79
2019-03-30T05:57:47.992Z,4.93
2019-03-30T06:00:19.226Z,5.10
2019-03-30T06:02:47.534Z,5.21
2019-03-30T06:05:15.857Z,5.24
2019-03-30T06:07:44.471Z,5.28
2019-03-30T06:10:12.865Z,5.28
2019-03-30T06:12:41.267Z,5.35
2019-03-30T06:15:09.758Z,5.50
2019-03-30T06:17:38.083Z,5.60
2019-03-30T06:20:07.880Z,5.74
2019-03-30T06:22:40.596Z,5.74
2019-03-30T06:25:06.323Z,5.93
2019-03-30T06:27:34.618Z,6.05
2019-03-30T06:30:20.667Z,6.10
2019-03-30T06:32:49.347Z,6.18
2019-03-30T06:35:17.719Z,6.23
2019-03-30T06:37:46.048Z,6.16
2019-03-30T06:40:14.891Z,6.16
2019-03-30T06:42:43.276Z,6.34
2019-03-30T06:45:11.764Z,6.36
2019-03-30T06:47:40.133Z,6.41
2019-03-30T06:50:08.877Z,6.47
2019-03-30T06:52:37.199Z,6.52
2019-03-30T06:55:06.919Z,6.55
2019-03-30T06:57:35.252Z,6.62
2019-03-30T07:00:04.713Z,6.67
2019-03-30T07:02:33.110Z,6.97
2019-03-30T07:05:01.495Z,6.99
2019-03-30T07:07:30.308Z,6.99
2019-03-30T07:09:59.998Z,7.22
2019-03-30T07:12:29.763Z,7.40
2019-03-30T07:14:59.662Z,7.50
2019-03-30T07:17:28.043Z,7.52
2019-03-30T07:19:56.470Z,7.47
2019-03-30T07:22:24.855Z,7.60
2019-03-30T07:24:53.481Z,7.82
2019-03-30T07:27:21.803Z,7.78
2019-03-30T07:29:50.143Z,8.26
2019-03-30T07:32:18.807Z,8.10
2019-03-30T07:34:47.209Z,8.32
2019-03-30T07:37:15.590Z,8.47
2019-03-30T07:39:43.899Z,8.43
2019-03-30T07:42:12.216Z,8.79
2019-03-30T07:44:40.830Z,8.99
2019-03-30T07:47:09.164Z,8.62
2019-03-30T07:49:37.518Z,9.04
2019-03-30T07:52:05.807Z,8.76
2019-03-30T07:54:34.443Z,9.06
2019-03-30T07:57:06.263Z,9.58
2019-03-30T07:59:33.176Z,9.58
2019-03-30T08:02:01.848Z,10.07
2019-03-30T08:04:30.259Z,10.12
2019-03-30T08:06:58.536Z,9.75
2019-03-30T08:09:26.845Z,9.82
2019-03-30T08:11:55.516Z,9.96
2019-03-30T08:14:24.387Z,10.41
2019-03-30T08:16:52.716Z,10.50
2019-03-30T08:19:21.948Z,10.27
2019-03-30T08:21:50.374Z,10.66
2019-03-30T08:24:19.027Z,10.82
2019-03-30T08:26:47.508Z,10.84
2019-03-30T08:29:15.851Z,11.19
2019-03-30T08:31:44.162Z,10.96
2019-03-30T08:34:12.808Z,10.98
2019-03-30T08:36:41.120Z,11.01
2019-03-30T08:39:09.577Z,11.19
2019-03-30T08:41:37.943Z,11.33
2019-03-30T08:44:06.702Z,11.26
2019-03-30T08:46:35.017Z,11.34
2019-03-30T08:49:03.439Z,11.54
2019-03-30T08:51:31.823Z,11.37
2019-03-30T08:54:00.524Z,11.51
2019-03-30T08:56:28.868Z,11.48
2019-03-30T08:58:57.288Z,11.60
2019-03-30T09:01:25.636Z,11.61
2019-03-30T09:03:54.057Z,11.98
2019-03-30T09:06:22.531Z,12.07
2019-03-30T09:08:50.916Z,12.01
2019-03-30T09:11:19.266Z,12.10
2019-03-30T09:13:47.577Z,12.01
2019-03-30T09:16:15.940Z,11.96
2019-03-30T09:18:44.322Z,12.15
2019-03-30T09:21:12.659Z,12.41
2019-03-30T09:23:40.959Z,12.77
2019-03-30T09:26:09.262Z,12.71
2019-03-30T09:28:37.604Z,13.06
2019-03-30T09:31:05.982Z,12.97
2019-03-30T09:33:34.383Z,12.99
2019-03-30T09:36:02.689Z,13.40
2019-03-30T09:38:31.084Z,13.58
2019-03-30T09:40:59.388Z,13.32
2019-03-30T09:43:27.778Z,13.14
2019-03-30T09:45:56.078Z,13.21
2019-03-30T09:48:24.402Z,13.32
2019-03-30T09:50:52.707Z,13.39
2019-03-30T09:53:21.308Z,13.79
2019-03-30T09:55:49.608Z,13.78
2019-03-30T09:58:17.937Z,14.37
2019-03-30T10:00:46.266Z,14.22
2019-03-30T10:03:14.900Z,14.52
2019-03-30T10:05:43.246Z,14.82
2019-03-30T10:08:11.572Z,15.01
2019-03-30T10:10:40.350Z,15.00
2019-03-30T10:13:08.656Z,15.33
2019-03-30T10:15:37.003Z,15.55
2019-03-30T10:18:05.399Z,14.42
2019-03-30T10:20:33.750Z,14.45
2019-03-30T10:23:02.148Z,15.19
2019-03-30T10:25:30.450Z,15.59
2019-03-30T10:27:58.773Z,15.41
2019-03-30T10:30:27.399Z,14.89
2019-03-30T10:32:56.092Z,15.70
2019-03-30T10:35:24.574Z,15.99
2019-03-30T10:37:52.894Z,15.90
2019-03-30T10:40:21.194Z,16.46
2019-03-30T10:42:49.524Z,16.35
2019-03-30T10:45:17.919Z,16.52
2019-03-30T10:47:46.232Z,16.41
2019-03-30T10:50:14.618Z,16.16
2019-03-30T10:52:42.995Z,16.41
2019-03-30T10:55:11.500Z,16.60
2019-03-30T10:57:39.896Z,17.13
2019-03-30T11:00:09.770Z,16.79
2019-03-30T11:02:39.438Z,17.22
2019-03-30T11:05:07.867Z,16.49
2019-03-30T11:07:36.501Z,17.05
2019-03-30T11:10:07.242Z,17.05
2019-03-30T11:12:35.724Z,16.48
2019-03-30T11:15:06.461Z,16.21
2019-03-30T11:17:34.867Z,16.72
2019-03-30T11:20:04.163Z,16.37
2019-03-30T11:22:32.512Z,17.55
2019-03-30T11:25:07.624Z,17.57
2019-03-30T11:27:31.025Z,16.29
2019-03-30T11:29:59.406Z,17.86
2019-03-30T11:32:27.726Z,18.44
2019-03-30T11:34:56.488Z,19.06
2019-03-30T11:37:24.887Z,19.06
2019-03-30T11:39:53.267Z,20.70
2019-03-30T11:42:21.583Z,19.13
2019-03-30T11:44:49.986Z,18.35
2019-03-30T11:47:18.370Z,17.55
2019-03-30T11:49:46.704Z,18.18
2019-03-30T11:52:15.036Z,18.90
2019-03-30T11:54:43.388Z,19.70
2019-03-30T11:57:11.768Z,22.67
2019-03-30T11:59:40.294Z,22.18
2019-03-30T12:02:08.737Z,22.20
2019-03-30T12:04:37.095Z,23.11
2019-03-30T12:07:05.545Z,21.63
2019-03-30T12:09:34.338Z,21.07
2019-03-30T12:12:02.662Z,20.84
2019-03-30T12:14:31.382Z,23.54
2019-03-30T12:17:00.132Z,23.26
2019-03-30T12:19:28.444Z,22.93
2019-03-30T12:21:56.776Z,22.09
2019-03-30T12:24:25.216Z,20.66
2019-03-30T12:26:55.491Z,20.82
2019-03-30T12:29:23.831Z,20.56
2019-03-30T12:31:52.150Z,22.11
2019-03-30T12:34:20.537Z,21.36
2019-03-30T12:36:48.912Z,24.94
2019-03-30T12:39:17.306Z,24.32
2019-03-30T12:41:45.611Z,24.00
2019-03-30T12:44:14.657Z,24.52
2019-03-30T12:46:43.321Z,24.66
2019-03-30T12:49:11.918Z,23.46
2019-03-30T12:51:40.419Z,22.42
2019-03-30T12:54:09.061Z,24.89
2019-03-30T12:56:38.068Z,25.03
2019-03-30T12:59:06.376Z,24.75
2019-03-30T13:01:34.855Z,25.09
2019-03-30T13:04:03.337Z,25.38
2019-03-30T13:06:31.672Z,25.39
2019-03-30T13:09:00.417Z,24.89
2019-03-30T13:11:29.108Z,25.97
2019-03-30T13:13:58.783Z,25.49
2019-03-30T13:16:27.093Z,25.45
2019-03-30T13:18:55.837Z,26.48
2019-03-30T13:21:24.780Z,25.79
2019-03-30T13:23:53.121Z,23.17
2019-03-30T13:26:21.517Z,23.57
2019-03-30T13:28:49.960Z,24.15
2019-03-30T13:31:18.335Z,23.19
2019-03-30T13:33:46.751Z,22.44
2019-03-30T13:36:15.277Z,23.27
2019-03-30T13:38:43.622Z,23.65
2019-03-30T13:41:14.146Z,25.49
2019-03-30T13:43:42.308Z,24.50
2019-03-30T13:46:10.607Z,26.58
2019-03-30T13:48:38.938Z,26.86
2019-03-30T13:51:08.059Z,27.40
2019-03-30T13:53:38.578Z,26.42
2019-03-30T13:56:16.565Z,24.54
2019-03-30T13:58:36.865Z,26.35
2019-03-30T14:01:05.150Z,24.45
2019-03-30T14:03:33.829Z,24.29
2019-03-30T14:06:02.315Z,22.67
2019-03-30T14:08:30.635Z,25.44
2019-03-30T14:10:59.310Z,25.55
2019-03-30T14:13:27.855Z,26.03
2019-03-30T14:15:56.103Z,24.37
2019-03-30T14:18:24.795Z,27.28
2019-03-30T14:20:53.525Z,26.14
2019-03-30T14:23:22.217Z,25.95
2019-03-30T14:25:50.534Z,27.07
2019-03-30T14:28:18.923Z,26.60
2019-03-30T14:30:47.243Z,26.23
2019-03-30T14:33:15.555Z,27.18
2019-03-30T14:35:43.976Z,27.03
2019-03-30T14:38:12.311Z,28.37
2019-03-30T14:40:41.455Z,26.38
2019-03-30T14:43:10.191Z,26.60
2019-03-30T14:45:38.505Z,26.38
2019-03-30T14:48:07.151Z,27.07
2019-03-30T14:50:35.535Z,26.66
2019-03-30T14:53:03.860Z,25.27
2019-03-30T14:55:32.518Z,25.41
2019-03-30T14:58:00.813Z,24.14
2019-03-30T15:00:29.335Z,24.33
2019-03-30T15:02:58.886Z,25.83
2019-03-30T15:05:27.271Z,25.70
2019-03-30T15:07:55.578Z,25.04
2019-03-30T15:10:23.893Z,26.16
2019-03-30T15:12:52.611Z,25.97
2019-03-30T15:15:21.303Z,25.24
2019-03-30T15:17:49.652Z,24.26
2019-03-30T15:20:18.337Z,24.88
2019-03-30T15:22:47.173Z,26.75
2019-03-30T15:25:16.087Z,25.24
2019-03-30T15:27:44.405Z,24.61
2019-03-30T15:30:12.851Z,25.85
2019-03-30T15:32:41.275Z,26.47
2019-03-30T15:35:09.736Z,25.74
2019-03-30T15:37:38.039Z,26.26
2019-03-30T15:40:07.386Z,25.89
2019-03-30T15:42:39.714Z,25.63
2019-03-30T15:45:08.650Z,25.87
2019-03-30T15:47:36.950Z,25.81
2019-03-30T15:50:06.205Z,25.31
2019-03-30T15:52:34.540Z,25.42
2019-03-30T15:55:03.700Z,26.20
2019-03-30T15:57:32.301Z,25.72
2019-03-30T16:00:00.609Z,24.80
2019-03-30T16:02:28.981Z,25.35
2019-03-30T16:04:57.302Z,24.63
2019-03-30T16:07:25.605Z,23.93
2019-03-30T16:09:53.914Z,24.56
2019-03-30T16:12:22.580Z,24.51
2019-03-30T16:14:50.875Z,23.60
2019-03-30T16:17:19.200Z,23.39
2019-03-30T16:19:47.503Z,22.95
2019-03-30T16:22:15.809Z,22.95
2019-03-30T16:24:44.183Z,24.18
2019-03-30T16:27:12.551Z,22.28
2019-03-30T16:29:40.904Z,22.88
2019-03-30T16:32:09.175Z,22.47
2019-03-30T16:34:37.472Z,23.40
2019-03-30T16:37:05.789Z,23.24
2019-03-30T16:39:34.973Z,22.25
2019-03-30T16:42:03.455Z,22.59
2019-03-30T16:44:31.755Z,22.23
2019-03-30T16:47:00.149Z,21.64
2019-03-30T16:49:28.443Z,21.47
2019-03-30T16:51:56.769Z,20.94
2019-03-30T16:54:25.088Z,20.65
2019-03-30T16:56:53.467Z,20.61
2019-03-30T16:59:21.773Z,20.45
2019-03-30T17:01:50.230Z,20.37
2019-03-30T17:04:18.613Z,19.56
2019-03-30T17:06:46.940Z,19.40
2019-03-30T17:09:15.668Z,19.26
2019-03-30T17:11:44.363Z,19.46
2019-03-30T17:14:13.668Z,19.32
2019-03-30T17:16:41.963Z,18.84
2019-03-30T17:19:10.352Z,18.65
2019-03-30T17:21:40.699Z,18.74
2019-03-30T17:24:09.548Z,18.30
2019-03-30T17:26:37.990Z,18.04
2019-03-30T17:29:06.378Z,17.61
2019-03-30T17:31:34.680Z,17.35
2019-03-30T17:34:02.995Z,16.97
2019-03-30T17:36:31.370Z,16.61
2019-03-30T17:39:00.041Z,16.46
2019-03-30T17:41:28.343Z,16.07
2019-03-30T17:43:56.637Z,15.84
2019-03-30T17:46:25.282Z,15.68
2019-03-30T17:48:53.674Z,15.57
2019-03-30T17:51:22.060Z,15.17
2019-03-30T17:53:50.452Z,15.12
2019-03-30T17:56:18.849Z,14.87
2019-03-30T17:58:47.231Z,14.63
2019-03-30T18:01:16.035Z,14.34
2019-03-30T18:03:44.548Z,14.05
2019-03-30T18:06:13.267Z,13.89
2019-03-30T18:08:41.629Z,13.76
2019-03-30T18:11:09.966Z,13.75
2019-03-30T18:13:38.292Z,13.69
2019-03-30T18:16:06.694Z,13.59
2019-03-30T18:18:35.076Z,13.37
2019-03-30T18:21:03.545Z,12.94
2019-03-30T18:23:31.872Z,12.77
2019-03-30T18:26:00.641Z,12.89
2019-03-30T18:28:28.970Z,12.95
2019-03-30T18:30:57.254Z,12.94
2019-03-30T18:33:25.687Z,12.87
2019-03-30T18:35:54.377Z,12.61
2019-03-30T18:38:23.450Z,12.49
2019-03-30T18:40:51.746Z,12.55
2019-03-30T18:43:20.541Z,12.78
2019-03-30T18:45:48.976Z,12.44
2019-03-30T18:48:18.439Z,12.32
2019-03-30T18:50:47.527Z,12.28
2019-03-30T18:53:16.774Z,12.10
2019-03-30T18:55:45.146Z,12.08
2019-03-30T18:58:13.470Z,11.87
2019-03-30T19:00:41.770Z,11.85
2019-03-30T19:03:10.155Z,11.74
2019-03-30T19:05:38.562Z,11.75
2019-03-30T19:08:07.217Z,11.58
2019-03-30T19:10:36.043Z,11.46
2019-03-30T19:13:04.556Z,11.38
2019-03-30T19:15:32.881Z,11.61
2019-03-30T19:18:01.181Z,11.74
2019-03-30T19:20:29.575Z,11.69
2019-03-30T19:22:57.888Z,11.68
2019-03-30T19:25:29.557Z,11.37
2019-03-30T19:27:56.955Z,10.81
2019-03-30T19:30:25.622Z,10.99
2019-03-30T19:32:53.944Z,10.79
2019-03-30T19:35:22.242Z,10.98
2019-03-30T19:37:50.636Z,10.84
2019-03-30T19:40:18.941Z,10.89
2019-03-30T19:42:47.408Z,11.06
2019-03-30T19:45:16.212Z,11.13
2019-03-30T19:47:44.622Z,10.99
2019-03-30T19:50:13.084Z,10.87
2019-03-30T19:52:41.581Z,10.73
2019-03-30T19:55:10.249Z,10.67
2019-03-30T19:57:38.839Z,10.51
2019-03-30T20:00:10.703Z,10.42
2019-03-30T20:02:39.073Z,10.28
2019-03-30T20:05:07.959Z,10.03
2019-03-30T20:07:36.290Z,10.07
2019-03-30T20:10:05.821Z,10.10
2019-03-30T20:12:34.468Z,10.09
2019-03-30T20:15:02.984Z,10.02
2019-03-30T20:17:31.367Z,10.07
2019-03-30T20:19:59.671Z,9.98
2019-03-30T20:22:27.999Z,10.12
2019-03-30T20:24:56.371Z,10.07
2019-03-30T20:27:24.766Z,9.90
2019-03-30T20:29:53.170Z,9.88
2019-03-30T20:32:21.816Z,9.79
2019-03-30T20:34:50.211Z,9.75
2019-03-30T20:37:18.618Z,9.67
2019-03-30T20:39:46.992Z,9.50
2019-03-30T20:42:15.337Z,9.35
2019-03-30T20:44:43.832Z,9.45
2019-03-30T20:47:12.150Z,9.28
2019-03-30T20:49:40.472Z,9.46
2019-03-30T20:52:08.776Z,9.64
2019-03-30T20:54:37.916Z,9.67
2019-03-30T20:57:06.214Z,9.64
2019-03-30T20:59:40.234Z,9.64
2019-03-30T21:02:04.952Z,9.41
2019-03-30T21:04:33.349Z,9.28
2019-03-30T21:07:01.664Z,9.29
2019-03-30T21:09:29.985Z,9.20
2019-03-30T21:11:58.381Z,8.91
2019-03-30T21:14:26.739Z,8.64
2019-03-30T21:16:55.164Z,8.55
2019-03-30T21:19:23.632Z,8.54
2019-03-30T21:21:52.036Z,8.55
2019-03-30T21:24:20.422Z,8.73
2019-03-30T21:26:48.751Z,8.76
2019-03-30T21:29:17.057Z,8.62
2019-03-30T21:31:49.140Z,8.63
2019-03-30T21:34:16.068Z,8.61
2019-03-30T21:36:44.385Z,8.65
2019-03-30T21:39:12.761Z,8.63
2019-03-30T21:41:41.530Z,8.51
2019-03-30T21:44:21.468Z,8.64
2019-03-30T21:46:39.952Z,8.70
2019-03-30T21:49:08.262Z,8.62
2019-03-30T21:51:36.631Z,8.55
2019-03-30T21:54:05.030Z,8.59
2019-03-30T21:56:33.354Z,8.62
2019-03-30T21:59:01.799Z,8.59
2019-03-30T22:01:30.118Z,8.60
2019-03-30T22:03:58.437Z,8.56
2019-03-30T22:06:26.819Z,8.56
2019-03-30T22:08:55.132Z,8.51
2019-03-30T22:11:23.576Z,8.49
2019-03-30T22:13:51.976Z,8.44
2019-03-30T22:16:20.352Z,8.41
2019-03-30T22:18:48.681Z,8.34
2019-03-30T22:21:17.272Z,8.10
2019-03-30T22:23:45.578Z,8.24
2019-03-30T22:26:13.899Z,7.95
2019-03-30T22:28:42.315Z,8.17
2019-03-30T22:31:10.644Z,7.85
2019-03-30T22:33:38.975Z,7.62
2019-03-30T22:36:07.322Z,7.52
2019-03-30T22:38:36.035Z,7.39
2019-03-30T22:41:04.732Z,7.61
2019-03-30T22:43:33.119Z,7.47
2019-03-30T22:46:01.481Z,7.67
2019-03-30T22:48:29.823Z,7.63
2019-03-30T22:50:58.121Z,7.67
2019-03-30T22:53:26.551Z,7.66
2019-03-30T22:55:55.219Z,7.55
2019-03-30T22:58:23.618Z,7.21
2019-03-30T23:01:03.222Z,7.30
2019-03-30T23:03:31.545Z,7.30
2019-03-30T23:05:59.925Z,7.42
2019-03-30T23:08:28.608Z,7.24
2019-03-30T23:10:56.977Z,6.98
2019-03-30T23:13:25.365Z,7.01
2019-03-30T23:15:53.741Z,6.55
2019-03-30T23:18:22.044Z,6.55
2019-03-30T23:20:50.444Z,6.43
2019-03-30T23:23:19.198Z,6.32
2019-03-30T23:25:47.602Z,6.29
2019-03-30T23:28:15.986Z,6.32
2019-03-30T23:30:54.070Z,6.39
2019-03-30T23:33:14.403Z,6.50
2019-03-30T23:35:42.723Z,6.52
2019-03-30T23:38:11.048Z,6.43
2019-03-30T23:40:39.356Z,6.59
2019-03-30T23:43:07.705Z,6.41
2019-03-30T23:45:36.405Z,6.24
2019-03-30T23:48:04.824Z,6.41
2019-03-30T23:50:33.470Z,6.48
2019-03-30T23:53:01.935Z,6.28
2019-03-30T23:55:30.282Z,6.16
2019-03-30T23:57:58.693Z,6.08
